Time;durP1;ratioP1;P1;durP2;ratioP2;P2;SDS_P1;SDS_P2;PMS_P1;PMS_P2;Temp;Humidity;BMP_temperature;BMP_pressure;BME280_temperature;BME280_humidity;BME280_pressure;Samples;Min_cycle;Max_cycle;Signal;HPM_P1;HPM_P2
2023/01/28 00:01:13;;;;;;;3.15;1.55;;;;;;;;;;5050467;28;20029;-79
2023/01/28 00:03:38;;;;;;;0.30;0.30;;;;;;;;;;5050484;28;20032;-81
2023/01/28 00:06:09;;;;;;;0.10;0.10;;;;;;;;;;5050701;28;20044;-76
2023/01/28 00:08:34;;;;;;;0.10;0.10;;;;;;;;;;5050530;28;20159;-74
2023/01/28 00:11:01;;;;;;;0.10;0.10;;;;;;;;;;5050657;28;20459;-78
2023/01/28 00:13:26;;;;;;;0.55;0.55;;;;;;;;;;5051042;28;20029;-76
2023/01/28 00:15:56;;;;;;;0.65;0.55;;;;;;;;;;5050712;28;20039;-77
2023/01/28 00:18:21;;;;;;;1.98;1.13;;;;;;;;;;5036848;28;20049;-78
2023/01/28 00:20:59;;;;;;;0.10;0.10;;;;;;;;;;5061749;28;20114;-75
2023/01/28 00:23:24;;;;;;;0.63;0.63;;;;;;;;;;5068038;28;20058;-76
2023/01/28 00:25:50;;;;;;;0.10;0.10;;;;;;;;;;5037543;28;20111;-74
2023/01/28 00:28:15;;;;;;;0.30;0.30;;;;;;;;;;5053825;28;20040;-77
2023/01/28 00:30:40;;;;;;;0.17;0.17;;;;;;;;;;5058279;28;20025;-76
2023/01/28 00:33:06;;;;;;;0.10;0.10;;;;;;;;;;5043450;28;20100;-75
2023/01/28 00:35:31;;;;;;;0.43;0.43;;;;;;;;;;5035969;28;20048;-76
2023/01/28 00:37:57;;;;;;;1.35;1.25;;;;;;;;;;5053120;28;20025;-78
2023/01/28 00:40:22;;;;;;;0.10;0.10;;;;;;;;;;5053596;28;20037;-77
2023/01/28 00:42:47;;;;;;;0.40;0.40;;;;;;;;;;5035960;28;20024;-76
2023/01/28 00:45:13;;;;;;;0.10;0.10;;;;;;;;;;5052114;28;20033;-76
2023/01/28 00:47:38;;;;;;;1.15;0.77;;;;;;;;;;5053423;28;20025;-77
2023/01/28 00:50:04;;;;;;;0.10;0.10;;;;;;;;;;5053696;28;20048;-74
2023/01/28 00:52:29;;;;;;;0.55;0.55;;;;;;;;;;5053517;28;20107;-76
2023/01/28 00:54:56;;;;;;;0.10;0.10;;;;;;;;;;5062091;28;20048;-76
2023/01/28 00:57:21;;;;;;;0.10;0.10;;;;;;;;;;5038524;28;20025;-77
2023/01/28 00:59:46;;;;;;;1.10;0.82;;;;;;;;;;5053247;28;20385;-77
2023/01/28 01:02:12;;;;;;;0.50;0.50;;;;;;;;;;5053562;28;20465;-78
2023/01/28 01:04:38;;;;;;;0.20;0.20;;;;;;;;;;5053561;28;20480;-76
2023/01/28 01:07:03;;;;;;;1.20;1.20;;;;;;;;;;5062833;28;20044;-73
2023/01/28 01:09:29;;;;;;;0.10;0.10;;;;;;;;;;5073125;28;20037;-76
2023/01/28 01:11:55;;;;;;;0.30;0.30;;;;;;;;;;5073079;28;20067;-75
2023/01/28 01:14:20;;;;;;;0.10;0.10;;;;;;;;;;5055102;28;20064;-76
2023/01/28 01:16:46;;;;;;;0.90;0.85;;;;;;;;;;5055085;28;20032;-77
2023/01/28 01:19:12;;;;;;;0.10;0.10;;;;;;;;;;5073275;28;20036;-74
2023/01/28 01:21:37;;;;;;;0.10;0.10;;;;;;;;;;5073182;28;20032;-76
2023/01/28 01:24:02;;;;;;;0.10;0.10;;;;;;;;;;5071737;28;21008;-75
2023/01/28 01:26:28;;;;;;;0.20;0.20;;;;;;;;;;5072914;28;20063;-76
2023/01/28 01:28:56;;;;;;;0.82;0.82;;;;;;;;;;5055010;28;20029;-74
2023/01/28 01:31:21;;;;;;;1.58;1.17;;;;;;;;;;5073253;28;20033;-76
2023/01/28 01:33:48;;;;;;;1.88;1.40;;;;;;;;;;5073058;28;20032;-76
2023/01/28 01:36:14;;;;;;;0.00;0.00;;;;;;;;;;5073053;28;20032;-77
2023/01/28 01:38:40;;;;;;;0.30;0.30;;;;;;;;;;5053567;28;20036;-78
2023/01/28 01:41:07;;;;;;;0.10;0.10;;;;;;;;;;5076190;28;20044;-76
2023/01/28 01:43:48;;;;;;;1.00;0.88;;;;;;;;;;5072938;28;20447;-75
2023/01/28 01:46:14;;;;;;;0.70;0.68;;;;;;;;;;5055098;28;20049;-74
2023/01/28 01:48:40;;;;;;;0.10;0.10;;;;;;;;;;5074546;28;20439;-76
2023/01/28 01:51:09;;;;;;;0.10;0.10;;;;;;;;;;5059087;28;20119;-76
2023/01/28 01:53:36;;;;;;;0.10;0.10;;;;;;;;;;5076928;28;20025;-75
2023/01/28 01:56:03;;;;;;;0.75;0.75;;;;;;;;;;5076879;28;20036;-76
2023/01/28 01:58:32;;;;;;;0.10;0.10;;;;;;;;;;5058001;28;20036;-77
2023/01/28 02:00:58;;;;;;;0.10;0.10;;;;;;;;;;5039022;28;20032;-76
2023/01/28 02:03:27;;;;;;;0.32;0.32;;;;;;;;;;5056829;28;20380;-76
2023/01/28 02:05:53;;;;;;;0.93;0.93;;;;;;;;;;5056732;28;20096;-76
2023/01/28 02:08:21;;;;;;;0.20;0.20;;;;;;;;;;5056575;28;20270;-77
2023/01/28 02:10:53;;;;;;;0.10;0.10;;;;;;;;;;5032305;28;20024;-77
2023/01/28 02:13:20;;;;;;;0.40;0.40;;;;;;;;;;5076657;28;20047;-77
2023/01/28 02:15:46;;;;;;;0.10;0.10;;;;;;;;;;5076665;28;20036;-78
2023/01/28 02:18:12;;;;;;;0.10;0.10;;;;;;;;;;5076841;28;20038;-78
2023/01/28 02:20:56;;;;;;;0.10;0.10;;;;;;;;;;5058597;28;20112;-77
2023/01/28 02:23:39;;;;;;;0.20;0.20;;;;;;;;;;5076265;28;20061;-78
2023/01/28 02:26:24;;;;;;;1.00;1.00;;;;;;;;;;5058447;28;20045;-78
2023/01/28 02:29:07;;;;;;;0.10;0.10;;;;;;;;;;5057707;28;20033;-77
2023/01/28 02:31:46;;;;;;;1.10;1.10;;;;;;;;;;5058418;28;20361;-77
2023/01/28 02:34:31;;;;;;;0.20;0.20;;;;;;;;;;5076060;28;20032;-75
2023/01/28 02:36:59;;;;;;;0.10;0.10;;;;;;;;;;5057629;28;20099;-76
2023/01/28 02:39:36;;;;;;;0.10;0.10;;;;;;;;;;5057749;28;20020;-76
2023/01/28 02:42:22;;;;;;;1.38;1.27;;;;;;;;;;5058042;28;20475;-76
2023/01/28 02:44:47;;;;;;;0.10;0.10;;;;;;;;;;5057531;28;20040;-76
2023/01/28 02:49:59;;;;;;;0.05;0.05;;;;;;;;;;5076027;28;20036;-77
2023/01/28 02:55:26;;;;;;;0.10;0.10;;;;;;;;;;5058047;28;20388;-73
2023/01/28 02:58:05;;;;;;;0.10;0.10;;;;;;;;;;5054837;28;20044;-73
2023/01/28 03:00:33;;;;;;;0.10;0.10;;;;;;;;;;5037258;28;20052;-73
2023/01/28 03:03:06;;;;;;;0.03;0.03;;;;;;;;;;5061395;28;20028;-73
2023/01/28 03:05:35;;;;;;;0.10;0.10;;;;;;;;;;5075456;28;20033;-73
2023/01/28 03:09:21;;;;;;;2.88;1.65;;;;;;;;;;5057611;28;20465;-74
2023/01/28 03:38:40;;;;;;;0.10;0.10;;;;;;;;;;5074983;28;20094;-75
2023/01/28 03:41:10;;;;;;;0.10;0.10;;;;;;;;;;5056799;28;20119;-74
2023/01/28 03:43:35;;;;;;;0.20;0.20;;;;;;;;;;5056384;28;20111;-75
2023/01/28 03:46:01;;;;;;;0.17;0.17;;;;;;;;;;5074838;28;20154;-75
2023/01/28 03:48:27;;;;;;;0.40;0.40;;;;;;;;;;5056832;28;20111;-75
2023/01/28 03:50:57;;;;;;;0.10;0.10;;;;;;;;;;5056745;28;20119;-74
2023/01/28 03:53:25;;;;;;;0.10;0.10;;;;;;;;;;5056395;28;20388;-76
2023/01/28 03:55:51;;;;;;;0.17;0.17;;;;;;;;;;5074099;28;20027;-75
2023/01/28 03:58:17;;;;;;;0.20;0.20;;;;;;;;;;5040090;28;20033;-73
2023/01/28 04:00:43;;;;;;;2.28;1.40;;;;;;;;;;5056663;28;20123;-73
2023/01/28 04:03:15;;;;;;;4.07;3.03;;;;;;;;;;5052298;28;20024;-75
2023/01/28 04:05:56;;;;;;;0.75;0.45;;;;;;;;;;5052733;28;20029;-73
2023/01/28 04:08:22;;;;;;;0.10;0.10;;;;;;;;;;5052332;28;20391;-74
2023/01/28 04:11:14;;;;;;;0.20;0.20;;;;;;;;;;5052461;28;20068;-77
2023/01/28 04:13:41;;;;;;;0.32;0.32;;;;;;;;;;5069803;28;20033;-76
2023/01/28 04:16:07;;;;;;;0.10;0.10;;;;;;;;;;5052490;28;20029;-76
2023/01/28 04:18:38;;;;;;;0.10;0.10;;;;;;;;;;5036445;28;20029;-75
2023/01/28 04:21:04;;;;;;;0.10;0.10;;;;;;;;;;5052366;28;20074;-74
2023/01/28 04:23:30;;;;;;;0.10;0.10;;;;;;;;;;5052002;28;20841;-77
2023/01/28 04:25:56;;;;;;;0.10;0.10;;;;;;;;;;5069521;28;20047;-74
2023/01/28 04:28:22;;;;;;;0.10;0.10;;;;;;;;;;5052506;28;20555;-74
2023/01/28 04:30:48;;;;;;;0.10;0.10;;;;;;;;;;5052078;28;20090;-73
2023/01/28 04:33:40;;;;;;;0.10;0.10;;;;;;;;;;5031379;28;20106;-74
2023/01/28 04:36:18;;;;;;;0.10;0.10;;;;;;;;;;5070388;28;20071;-75
2023/01/28 04:38:58;;;;;;;0.10;0.10;;;;;;;;;;5037547;28;20025;-74
2023/01/28 04:41:49;;;;;;;0.10;0.10;;;;;;;;;;5037096;28;20041;-74
2023/01/28 04:44:25;;;;;;;0.20;0.20;;;;;;;;;;5063923;28;20476;-75
2023/01/28 04:47:00;;;;;;;0.10;0.10;;;;;;;;;;5070244;28;20079;-73
2023/01/28 04:49:43;;;;;;;0.25;0.25;;;;;;;;;;5068714;28;20078;-75
2023/01/28 04:52:39;;;;;;;0.50;0.50;;;;;;;;;;5056463;28;20468;-75
2023/01/28 04:55:17;;;;;;;0.10;0.10;;;;;;;;;;5056703;28;20475;-75
2023/01/28 04:57:44;;;;;;;;;;;;;;;;;;5051775;28;20281;-73
2023/01/28 05:00:10;;;;;;;0.10;0.10;;;;;;;;;;5069402;28;20326;-73
2023/01/28 05:02:35;;;;;;;0.10;0.10;;;;;;;;;;5051356;28;20115;-73
2023/01/28 05:05:03;;;;;;;0.10;0.10;;;;;;;;;;5051661;28;20476;-73
2023/01/28 05:07:58;;;;;;;0.10;0.10;;;;;;;;;;5047332;28;20055;-74
2023/01/28 05:10:24;;;;;;;0.10;0.10;;;;;;;;;;5050044;28;20496;-75
2023/01/28 05:12:51;;;;;;;0.35;0.35;;;;;;;;;;5051450;28;20188;-75
2023/01/28 05:15:17;;;;;;;0.20;0.20;;;;;;;;;;5051503;28;20380;-75
2023/01/28 05:17:43;;;;;;;0.73;0.73;;;;;;;;;;5056418;28;20392;-76
2023/01/28 05:20:11;;;;;;;0.20;0.20;;;;;;;;;;5063846;28;20036;-73
2023/01/28 05:22:37;;;;;;;0.10;0.10;;;;;;;;;;5067879;28;20025;-74
2023/01/28 05:25:13;;;;;;;0.10;0.10;;;;;;;;;;5057743;28;20035;-74
2023/01/28 05:27:38;;;;;;;0.55;0.55;;;;;;;;;;5034583;28;20041;-72
2023/01/28 05:30:05;;;;;;;0.10;0.10;;;;;;;;;;5051565;28;20033;-74
2023/01/28 05:32:30;;;;;;;0.10;0.10;;;;;;;;;;5051336;28;20035;-73
2023/01/28 05:34:56;;;;;;;0.10;0.10;;;;;;;;;;5069238;28;20012;-73
2023/01/28 05:37:21;;;;;;;0.10;0.10;;;;;;;;;;5069489;28;20404;-73
2023/01/28 05:39:50;;;;;;;0.35;0.35;;;;;;;;;;5050685;28;20028;-73
2023/01/28 05:42:17;;;;;;;0.10;0.10;;;;;;;;;;5050753;28;20493;-76
2023/01/28 05:44:45;;;;;;;0.10;0.10;;;;;;;;;;5051496;28;20078;-74
2023/01/28 05:47:17;;;;;;;0.10;0.10;;;;;;;;;;5050173;28;20048;-75
2023/01/28 05:50:13;;;;;;;0.20;0.20;;;;;;;;;;5051315;28;20021;-74
2023/01/28 05:52:43;;;;;;;0.20;0.20;;;;;;;;;;5068846;28;20021;-74
2023/01/28 05:55:18;;;;;;;0.25;0.25;;;;;;;;;;5050565;28;20024;-73
2023/01/28 05:57:44;;;;;;;0.10;0.10;;;;;;;;;;5034413;28;20066;-74
2023/01/28 06:00:11;;;;;;;0.10;0.10;;;;;;;;;;5050426;28;20032;-74
2023/01/28 06:02:44;;;;;;;0.10;0.10;;;;;;;;;;5050903;28;20151;-74
2023/01/28 06:05:12;;;;;;;0.10;0.10;;;;;;;;;;5050343;28;20055;-75
2023/01/28 06:07:38;;;;;;;0.10;0.10;;;;;;;;;;5050129;28;20044;-75
2023/01/28 06:10:06;;;;;;;0.10;0.10;;;;;;;;;;5049819;28;20598;-73
2023/01/28 06:12:31;;;;;;;0.10;0.10;;;;;;;;;;5049689;28;20121;-75
2023/01/28 06:15:15;;;;;;;0.95;0.95;;;;;;;;;;5052904;28;20049;-75
2023/01/28 06:17:56;;;;;;;0.10;0.10;;;;;;;;;;5036056;28;20064;-76
2023/01/28 06:20:26;;;;;;;0.10;0.10;;;;;;;;;;5050478;28;20570;-73
2023/01/28 06:22:52;;;;;;;0.10;0.10;;;;;;;;;;5050056;28;20040;-75
2023/01/28 06:25:18;;;;;;;0.10;0.10;;;;;;;;;;5049279;28;20037;-71
2023/01/28 06:27:44;;;;;;;0.10;0.10;;;;;;;;;;5066513;28;20040;-75
2023/01/28 06:30:10;;;;;;;0.10;0.10;;;;;;;;;;5049968;28;20037;-74
2023/01/28 06:32:35;;;;;;;0.50;0.50;;;;;;;;;;5049219;28;20440;-74
2023/01/28 06:35:01;;;;;;;0.10;0.10;;;;;;;;;;5068658;28;20486;-74
2023/01/28 06:37:26;;;;;;;0.20;0.20;;;;;;;;;;5072307;28;20087;-73
2023/01/28 06:39:51;;;;;;;0.10;0.10;;;;;;;;;;5071295;28;20063;-74
2023/01/28 06:42:17;;;;;;;0.10;0.10;;;;;;;;;;5054205;28;20479;-74
2023/01/28 06:44:42;;;;;;;0.20;0.20;;;;;;;;;;5071954;28;20060;-73
2023/01/28 06:47:09;;;;;;;0.10;0.10;;;;;;;;;;5071664;28;20048;-73
2023/01/28 06:49:35;;;;;;;0.30;0.30;;;;;;;;;;5037691;28;20021;-74
2023/01/28 06:52:01;;;;;;;0.10;0.10;;;;;;;;;;5070292;28;20025;-73
2023/01/28 06:54:26;;;;;;;0.15;0.15;;;;;;;;;;5070913;28;20388;-74
2023/01/28 06:56:52;;;;;;;0.10;0.10;;;;;;;;;;5071905;28;20032;-73
2023/01/28 06:59:17;;;;;;;0.10;0.10;;;;;;;;;;5070688;28;20025;-73
2023/01/28 07:01:42;;;;;;;0.10;0.10;;;;;;;;;;5069737;28;20512;-74
2023/01/28 07:04:08;;;;;;;0.10;0.10;;;;;;;;;;5071632;28;20368;-74
2023/01/28 07:06:33;;;;;;;0.10;0.10;;;;;;;;;;5071589;28;20468;-73
2023/01/28 07:08:58;;;;;;;0.28;0.28;;;;;;;;;;5063001;28;20053;-76
2023/01/28 07:11:24;;;;;;;0.10;0.10;;;;;;;;;;5067401;28;20033;-76
2023/01/28 07:13:49;;;;;;;0.30;0.30;;;;;;;;;;5053294;28;20025;-75
2023/01/28 07:16:15;;;;;;;0.17;0.17;;;;;;;;;;5071263;28;20472;-77
2023/01/28 07:18:41;;;;;;;0.10;0.10;;;;;;;;;;5071330;28;20028;-77
2023/01/28 07:21:06;;;;;;;0.10;0.10;;;;;;;;;;5071560;28;20022;-76
2023/01/28 07:23:31;;;;;;;0.30;0.30;;;;;;;;;;5070596;28;20578;-76
2023/01/28 07:26:01;;;;;;;0.10;0.10;;;;;;;;;;5070914;28;20036;-76
2023/01/28 07:28:26;;;;;;;0.10;0.10;;;;;;;;;;5071348;28;20380;-76
2023/01/28 07:30:52;;;;;;;0.10;0.10;;;;;;;;;;5071187;28;20036;-77
2023/01/28 07:33:19;;;;;;;0.10;0.10;;;;;;;;;;5070563;28;20544;-79
2023/01/28 07:35:45;;;;;;;0.13;0.13;;;;;;;;;;5069669;28;20021;-77
2023/01/28 07:38:11;;;;;;;0.47;0.47;;;;;;;;;;5071210;28;20023;-77
2023/01/28 07:40:36;;;;;;;0.20;0.20;;;;;;;;;;5070437;28;20029;-78
2023/01/28 07:43:02;;;;;;;0.20;0.20;;;;;;;;;;5070847;28;20077;-74
2023/01/28 07:45:35;;;;;;;0.30;0.30;;;;;;;;;;5052475;28;20111;-76
2023/01/28 07:48:02;;;;;;;1.88;1.63;;;;;;;;;;5070442;28;20130;-77
2023/01/28 07:50:29;;;;;;;0.10;0.10;;;;;;;;;;5070502;28;20039;-75
2023/01/28 07:52:55;;;;;;;0.15;0.15;;;;;;;;;;5070489;28;20034;-74
2023/01/28 07:55:21;;;;;;;0.43;0.43;;;;;;;;;;5052323;28;20039;-75
2023/01/28 07:57:47;;;;;;;0.20;0.20;;;;;;;;;;5070958;28;20024;-74
2023/01/28 08:00:13;;;;;;;0.20;0.20;;;;;;;;;;5069003;28;20088;-75
2023/01/28 08:02:39;;;;;;;0.10;0.10;;;;;;;;;;5052782;28;20060;-77
2023/01/28 08:05:04;;;;;;;0.10;0.10;;;;;;;;;;5070771;28;20016;-78
2023/01/28 08:07:30;;;;;;;0.30;0.30;;;;;;;;;;5069931;28;20036;-77
2023/01/28 08:09:55;;;;;;;0.20;0.20;;;;;;;;;;5068364;28;20013;-75
2023/01/28 08:12:20;;;;;;;0.30;0.30;;;;;;;;;;5068455;28;20048;-75
2023/01/28 08:14:46;;;;;;;1.45;0.47;;;;;;;;;;5070447;28;20349;-76
2023/01/28 08:17:12;;;;;;;1.48;0.77;;;;;;;;;;5070387;28;20064;-74
2023/01/28 08:19:37;;;;;;;0.55;0.50;;;;;;;;;;5068864;28;20091;-73
2023/01/28 08:22:03;;;;;;;1.15;1.10;;;;;;;;;;5070745;28;20028;-74
2023/01/28 08:24:28;;;;;;;0.10;0.10;;;;;;;;;;5069167;28;20048;-74
2023/01/28 08:26:53;;;;;;;0.20;0.20;;;;;;;;;;5068445;28;20035;-75
2023/01/28 08:29:19;;;;;;;0.10;0.10;;;;;;;;;;5069983;28;20028;-75
2023/01/28 08:31:44;;;;;;;0.10;0.10;;;;;;;;;;5070222;28;20067;-73
2023/01/28 08:34:10;;;;;;;0.10;0.10;;;;;;;;;;5070310;28;20090;-73
2023/01/28 08:36:36;;;;;;;0.10;0.10;;;;;;;;;;5052102;28;20445;-73
2023/01/28 08:39:01;;;;;;;1.17;1.17;;;;;;;;;;5068125;28;20021;-74
2023/01/28 08:41:28;;;;;;;0.20;0.20;;;;;;;;;;5069455;28;20099;-73
2023/01/28 08:43:54;;;;;;;0.10;0.10;;;;;;;;;;5067726;28;20479;-74
2023/01/28 08:46:19;;;;;;;0.10;0.10;;;;;;;;;;5069164;28;20037;-73
2023/01/28 08:48:45;;;;;;;0.35;0.35;;;;;;;;;;5070018;28;20024;-74
2023/01/28 08:51:10;;;;;;;0.13;0.13;;;;;;;;;;5069795;28;20020;-75
2023/01/28 08:53:35;;;;;;;0.30;0.30;;;;;;;;;;5069532;28;20044;-74
2023/01/28 08:56:01;;;;;;;0.20;0.20;;;;;;;;;;5069465;28;20047;-75
2023/01/28 08:58:26;;;;;;;0.10;0.10;;;;;;;;;;5069404;28;20039;-74
2023/01/28 09:00:51;;;;;;;0.10;0.10;;;;;;;;;;5050704;28;20087;-75
2023/01/28 09:03:17;;;;;;;0.10;0.10;;;;;;;;;;5068712;28;20021;-74
2023/01/28 09:05:42;;;;;;;0.40;0.40;;;;;;;;;;5069407;28;20016;-75
2023/01/28 09:08:09;;;;;;;1.63;1.55;;;;;;;;;;5058168;28;20079;-73
2023/01/28 09:10:38;;;;;;;0.10;0.10;;;;;;;;;;5059300;28;20082;-71
2023/01/28 09:13:07;;;;;;;0.20;0.20;;;;;;;;;;5057650;28;20025;-72
2023/01/28 09:15:32;;;;;;;0.10;0.10;;;;;;;;;;5069754;28;20132;-75
2023/01/28 09:17:58;;;;;;;0.75;0.73;;;;;;;;;;5069544;28;20120;-74
2023/01/28 09:20:24;;;;;;;0.20;0.20;;;;;;;;;;5069553;28;20017;-73
2023/01/28 09:22:49;;;;;;;0.10;0.10;;;;;;;;;;5051557;28;20033;-73
2023/01/28 09:25:14;;;;;;;0.30;0.30;;;;;;;;;;5068701;28;20020;-74
2023/01/28 09:27:40;;;;;;;0.93;0.55;;;;;;;;;;5068885;28;20434;-75
2023/01/28 09:30:06;;;;;;;1.60;1.50;;;;;;;;;;5067324;28;20483;-73
2023/01/28 09:32:31;;;;;;;0.20;0.20;;;;;;;;;;5046048;28;20036;-73
2023/01/28 09:34:56;;;;;;;0.10;0.10;;;;;;;;;;5062147;28;20428;-73
2023/01/28 09:37:22;;;;;;;0.10;0.10;;;;;;;;;;5067296;28;20025;-76
2023/01/28 09:39:47;;;;;;;0.17;0.17;;;;;;;;;;5057139;28;20090;-73
2023/01/28 09:42:23;;;;;;;0.47;0.47;;;;;;;;;;5068047;28;20654;-74
2023/01/28 09:44:52;;;;;;;0.20;0.20;;;;;;;;;;5047191;28;20029;-74
2023/01/28 09:47:22;;;;;;;1.80;1.05;;;;;;;;;;5050430;28;20041;-73
2023/01/28 09:49:49;;;;;;;0.65;0.47;;;;;;;;;;5064285;28;20503;-72
2023/01/28 09:52:16;;;;;;;0.30;0.30;;;;;;;;;;5069026;28;20468;-74
2023/01/28 09:54:48;;;;;;;0.30;0.30;;;;;;;;;;5068542;28;20422;-73
2023/01/28 09:57:43;;;;;;;0.10;0.10;;;;;;;;;;5058470;28;20133;-73
2023/01/28 10:00:16;;;;;;;0.10;0.10;;;;;;;;;;5043156;28;20101;-73
2023/01/28 10:02:51;;;;;;;0.10;0.10;;;;;;;;;;5055288;28;20480;-73
2023/01/28 10:05:22;;;;;;;0.10;0.10;;;;;;;;;;5066609;28;20380;-72
2023/01/28 10:08:08;;;;;;;0.10;0.10;;;;;;;;;;5057578;28;20036;-73
2023/01/28 10:10:39;;;;;;;0.10;0.10;;;;;;;;;;5039726;28;20048;-72
2023/01/28 10:13:19;;;;;;;0.63;0.63;;;;;;;;;;5058514;28;20024;-73
2023/01/28 10:15:48;;;;;;;0.25;0.25;;;;;;;;;;5064443;28;20016;-72
2023/01/28 10:18:13;;;;;;;0.10;0.10;;;;;;;;;;5069300;28;20029;-73
2023/01/28 10:20:50;;;;;;;0.10;0.10;;;;;;;;;;5064747;28;20028;-72
2023/01/28 10:23:25;;;;;;;0.15;0.15;;;;;;;;;;5050854;28;20090;-72
2023/01/28 10:25:52;;;;;;;0.22;0.22;;;;;;;;;;5034614;28;20039;-71
2023/01/28 10:28:17;;;;;;;0.20;0.20;;;;;;;;;;5069151;28;20052;-71
2023/01/28 10:30:44;;;;;;;0.20;0.20;;;;;;;;;;5069464;28;20048;-72
2023/01/28 10:33:29;;;;;;;0.10;0.10;;;;;;;;;;5069305;28;20028;-72
2023/01/28 10:35:55;;;;;;;0.10;0.10;;;;;;;;;;5066052;28;20048;-72
2023/01/28 10:38:22;;;;;;;0.10;0.10;;;;;;;;;;5069888;28;20028;-72
2023/01/28 10:40:48;;;;;;;0.20;0.20;;;;;;;;;;5068853;28;20120;-73
2023/01/28 10:43:19;;;;;;;0.10;0.10;;;;;;;;;;5068560;28;20095;-72
2023/01/28 10:46:00;;;;;;;0.38;0.38;;;;;;;;;;5068081;28;20035;-73
2023/01/28 10:48:31;;;;;;;0.30;0.30;;;;;;;;;;5068512;28;20484;-73
2023/01/28 10:51:01;;;;;;;0.10;0.10;;;;;;;;;;5068625;28;20058;-72
2023/01/28 10:53:47;;;;;;;0.10;0.10;;;;;;;;;;5050792;28;20264;-73
2023/01/28 10:56:17;;;;;;;0.10;0.10;;;;;;;;;;5051970;28;20052;-72
2023/01/28 10:59:02;;;;;;;0.15;0.15;;;;;;;;;;5069623;28;20032;-73
2023/01/28 11:01:44;;;;;;;0.20;0.20;;;;;;;;;;5068362;28;20063;-72
2023/01/28 11:04:17;;;;;;;0.10;0.10;;;;;;;;;;5069310;28;20028;-73
2023/01/28 11:06:50;;;;;;;0.10;0.10;;;;;;;;;;5069707;28;20048;-72
2023/01/28 11:09:20;;;;;;;0.10;0.10;;;;;;;;;;5069703;28;20476;-72
2023/01/28 11:11:45;;;;;;;0.10;0.10;;;;;;;;;;5069814;28;20024;-72
2023/01/28 11:14:18;;;;;;;0.20;0.20;;;;;;;;;;5071115;28;20047;-71
2023/01/28 11:16:43;;;;;;;0.10;0.10;;;;;;;;;;5071860;28;20047;-72
2023/01/28 11:19:10;;;;;;;0.20;0.20;;;;;;;;;;5071809;28;20024;-72
2023/01/28 11:21:36;;;;;;;0.55;0.55;;;;;;;;;;5070999;28;20113;-72
2023/01/28 11:24:01;;;;;;;0.13;0.13;;;;;;;;;;5053129;28;20505;-73
2023/01/28 11:26:29;;;;;;;0.40;0.40;;;;;;;;;;5053761;28;20040;-72
2023/01/28 11:28:54;;;;;;;0.10;0.10;;;;;;;;;;5071330;28;20468;-72
2023/01/28 11:31:22;;;;;;;0.10;0.10;;;;;;;;;;5071693;28;20043;-72
2023/01/28 11:34:01;;;;;;;0.10;0.10;;;;;;;;;;5053237;28;20567;-72
2023/01/28 11:36:28;;;;;;;0.25;0.25;;;;;;;;;;5071646;28;20411;-72
2023/01/28 11:38:59;;;;;;;0.20;0.20;;;;;;;;;;5071174;28;20020;-72
2023/01/28 11:41:35;;;;;;;0.20;0.20;;;;;;;;;;5071181;28;20360;-73
2023/01/28 11:44:13;;;;;;;0.63;0.40;;;;;;;;;;5071018;28;20556;-72
2023/01/28 11:46:44;;;;;;;0.10;0.10;;;;;;;;;;5070949;28;20045;-72
2023/01/28 11:49:22;;;;;;;0.20;0.20;;;;;;;;;;5071169;28;20840;-72
2023/01/28 11:52:03;;;;;;;0.65;0.65;;;;;;;;;;5070672;28;20028;-73
2023/01/28 11:54:38;;;;;;;0.20;0.20;;;;;;;;;;5071167;28;20078;-72
2023/01/28 11:57:24;;;;;;;0.20;0.20;;;;;;;;;;5071107;28;20028;-73
2023/01/28 11:59:50;;;;;;;0.10;0.10;;;;;;;;;;5070543;28;20024;-72
2023/01/28 12:02:18;;;;;;;1.48;1.38;;;;;;;;;;5068405;28;20530;-72
2023/01/28 12:04:58;;;;;;;0.10;0.10;;;;;;;;;;5068490;28;20021;-73
2023/01/28 12:07:26;;;;;;;0.40;0.40;;;;;;;;;;5068329;28;20114;-73
2023/01/28 12:10:07;;;;;;;1.17;1.17;;;;;;;;;;5068723;28;20025;-72
2023/01/28 12:12:36;;;;;;;0.10;0.10;;;;;;;;;;5068791;28;20098;-72
2023/01/28 12:15:07;;;;;;;0.17;0.17;;;;;;;;;;5068075;28;20115;-72
2023/01/28 12:17:48;;;;;;;0.20;0.20;;;;;;;;;;5068665;28;20042;-72
2023/01/28 12:20:32;;;;;;;0.10;0.10;;;;;;;;;;5069478;28;20032;-71
2023/01/28 12:23:02;;;;;;;0.13;0.13;;;;;;;;;;5052232;28;20381;-71
2023/01/28 12:25:38;;;;;;;0.10;0.10;;;;;;;;;;5070261;28;20024;-73
2023/01/28 12:28:23;;;;;;;0.10;0.10;;;;;;;;;;5070174;28;20424;-71
2023/01/28 12:30:50;;;;;;;0.10;0.10;;;;;;;;;;5070359;28;20391;-73
2023/01/28 12:33:15;;;;;;;0.20;0.20;;;;;;;;;;5069413;28;20111;-73
2023/01/28 12:35:49;;;;;;;0.10;0.10;;;;;;;;;;5069984;28;20040;-72
2023/01/28 12:38:38;;;;;;;0.10;0.10;;;;;;;;;;5069924;28;20032;-71
2023/01/28 12:41:09;;;;;;;0.10;0.10;;;;;;;;;;5059383;28;20094;-73
2023/01/28 12:43:37;;;;;;;0.20;0.20;;;;;;;;;;5070229;28;20045;-73
2023/01/28 12:46:08;;;;;;;0.15;0.15;;;;;;;;;;5069979;28;20016;-71
2023/01/28 12:48:37;;;;;;;0.10;0.10;;;;;;;;;;5068714;28;20103;-72
2023/01/28 12:51:06;;;;;;;0.10;0.10;;;;;;;;;;5064206;28;20529;-72
2023/01/28 12:53:50;;;;;;;0.20;0.20;;;;;;;;;;5035146;28;20043;-72
2023/01/28 12:56:17;;;;;;;1.73;1.65;;;;;;;;;;5067336;28;20060;-73
2023/01/28 12:58:49;;;;;;;0.10;0.10;;;;;;;;;;5061208;28;20119;-71
2023/01/28 13:01:17;;;;;;;0.63;0.63;;;;;;;;;;5064888;28;20531;-71
2023/01/28 13:03:55;;;;;;;0.10;0.10;;;;;;;;;;5061415;28;20428;-71
2023/01/28 13:06:39;;;;;;;0.10;0.10;;;;;;;;;;5069769;28;20032;-71
2023/01/28 13:09:25;;;;;;;0.30;0.30;;;;;;;;;;5069077;28;20028;-71
2023/01/28 13:11:52;;;;;;;0.50;0.50;;;;;;;;;;5048277;28;20028;-71
2023/01/28 13:14:19;;;;;;;1.38;1.35;;;;;;;;;;5062172;28;20384;-71
2023/01/28 13:16:45;;;;;;;0.10;0.10;;;;;;;;;;5036510;28;20553;-71
2023/01/28 13:19:16;;;;;;;0.10;0.10;;;;;;;;;;5055712;28;20100;-72
2023/01/28 13:21:42;;;;;;;0.10;0.10;;;;;;;;;;5055609;28;20490;-72
2023/01/28 13:24:08;;;;;;;1.08;0.52;;;;;;;;;;5055152;28;20042;-72
2023/01/28 13:26:43;;;;;;;1.02;0.95;;;;;;;;;;5064835;28;20047;-71
2023/01/28 13:29:14;;;;;;;0.75;0.75;;;;;;;;;;5068861;28;20033;-71
2023/01/28 13:31:41;;;;;;;0.20;0.20;;;;;;;;;;5069036;28;20503;-73
2023/01/28 13:34:08;;;;;;;0.20;0.20;;;;;;;;;;5067992;28;20024;-71
2023/01/28 13:36:34;;;;;;;1.30;0.73;;;;;;;;;;5067972;28;20033;-71
2023/01/28 13:38:59;;;;;;;0.40;0.40;;;;;;;;;;5068695;28;20030;-71
2023/01/28 13:41:35;;;;;;;0.50;0.50;;;;;;;;;;5069382;28;20082;-71
2023/01/28 13:44:01;;;;;;;0.10;0.10;;;;;;;;;;5068476;28;20257;-71
2023/01/28 13:46:28;;;;;;;0.13;0.13;;;;;;;;;;5072274;28;20540;-71
2023/01/28 13:48:54;;;;;;;0.10;0.10;;;;;;;;;;5067600;28;20024;-71
2023/01/28 13:51:29;;;;;;;0.20;0.20;;;;;;;;;;5064087;28;20028;-71
2023/01/28 13:53:55;;;;;;;0.10;0.10;;;;;;;;;;5057730;28;20029;-72
2023/01/28 13:56:21;;;;;;;0.13;0.13;;;;;;;;;;5053658;28;20047;-71
2023/01/28 13:58:50;;;;;;;0.10;0.10;;;;;;;;;;5064930;28;20025;-71
2023/01/28 14:01:38;;;;;;;0.20;0.20;;;;;;;;;;5073183;28;20028;-72
2023/01/28 14:04:19;;;;;;;0.13;0.13;;;;;;;;;;5036632;28;20057;-71
2023/01/28 14:07:00;;;;;;;0.10;0.10;;;;;;;;;;5068095;28;20036;-71
2023/01/28 14:09:36;;;;;;;0.10;0.10;;;;;;;;;;5054832;28;20028;-72
2023/01/28 14:12:11;;;;;;;0.10;0.10;;;;;;;;;;5072449;28;20032;-71
2023/01/28 14:14:54;;;;;;;0.10;0.10;;;;;;;;;;5053055;28;20365;-73
2023/01/28 14:17:38;;;;;;;0.10;0.10;;;;;;;;;;5063984;28;20032;-71
2023/01/28 14:20:04;;;;;;;0.10;0.10;;;;;;;;;;5072484;28;20025;-71
2023/01/28 14:22:29;;;;;;;0.10;0.10;;;;;;;;;;5071767;28;20028;-71
2023/01/28 14:24:57;;;;;;;0.10;0.10;;;;;;;;;;5036503;28;20049;-71
2023/01/28 14:27:28;;;;;;;0.10;0.10;;;;;;;;;;5071807;28;20033;-75
2023/01/28 14:30:12;;;;;;;0.10;0.10;;;;;;;;;;5072300;28;20028;-71
2023/01/28 14:32:43;;;;;;;0.10;0.10;;;;;;;;;;5072694;28;20029;-74
2023/01/28 14:35:09;;;;;;;0.10;0.10;;;;;;;;;;5071707;28;20193;-73
2023/01/28 14:37:34;;;;;;;0.10;0.10;;;;;;;;;;5053617;28;20119;-72
2023/01/28 14:40:01;;;;;;;0.10;0.10;;;;;;;;;;5054206;28;20032;-75
2023/01/28 14:42:31;;;;;;;3.83;1.55;;;;;;;;;;5072399;28;20361;-72
2023/01/28 14:45:03;;;;;;;0.10;0.10;;;;;;;;;;5072128;28;20107;-72
2023/01/28 14:47:47;;;;;;;0.10;0.10;;;;;;;;;;5053973;28;20443;-70
2023/01/28 14:50:25;;;;;;;0.25;0.25;;;;;;;;;;5072123;28;20037;-73
2023/01/28 14:52:53;;;;;;;0.10;0.10;;;;;;;;;;5071367;28;20438;-74
2023/01/28 14:55:18;;;;;;;3.70;2.45;;;;;;;;;;5071306;28;20029;-75
2023/01/28 14:57:55;;;;;;;0.10;0.10;;;;;;;;;;5070905;28;20021;-73
2023/01/28 15:00:22;;;;;;;0.10;0.10;;;;;;;;;;5071781;28;20040;-73
2023/01/28 15:02:48;;;;;;;0.20;0.20;;;;;;;;;;5065068;28;20067;-73
2023/01/28 15:05:15;;;;;;;0.52;0.52;;;;;;;;;;5053762;28;20056;-72
2023/01/28 15:07:48;;;;;;;0.10;0.10;;;;;;;;;;5071194;28;20392;-74
2023/01/28 15:10:19;;;;;;;0.10;0.10;;;;;;;;;;5064013;28;20033;-70
2023/01/28 15:12:47;;;;;;;0.10;0.10;;;;;;;;;;5071669;28;20048;-70
2023/01/28 15:15:20;;;;;;;0.10;0.10;;;;;;;;;;5053704;28;20033;-73
2023/01/28 15:17:46;;;;;;;0.10;0.10;;;;;;;;;;5071651;28;20024;-70
2023/01/28 15:20:19;;;;;;;0.15;0.15;;;;;;;;;;5071417;28;20067;-70
2023/01/28 15:22:45;;;;;;;0.10;0.10;;;;;;;;;;5071155;28;20349;-71
2023/01/28 15:25:21;;;;;;;0.10;0.10;;;;;;;;;;5071254;28;20060;-70
2023/01/28 15:27:48;;;;;;;0.10;0.10;;;;;;;;;;5064903;28;20045;-70
2023/01/28 15:30:20;;;;;;;3.85;2.83;;;;;;;;;;5058099;28;20052;-70
2023/01/28 15:32:55;;;;;;;1.10;1.10;;;;;;;;;;5063433;28;20037;-70